Calimesa, California
Current Conditions -  °F | °C
As of 10:50 AM on Monday 20 Oct 2014 (Local Time) from KSBD Reporting Station
Haze Haze  
Wind Chill: 66°   Ceiling: Unl
Heat Index: 66°   Visibility: 3mi
Dew Point: 57°   Wind: 6mph
Humidity: 73%   Direction: 230°SW
Pressure: 29.97"   Gusts: NA
Location:  34°N, 117.06°W
Report Text: KSBD 201750Z 23005KT 3SM HZ SCT050 19/14 A2997
Loading
Personal Weather Stations






























Interactive Weather Map
Tropical Storm Tracking
New forecast layout! Learn more

10-Day Weather Forecast

Advertisements
Track Severe Weather on mobile